sensor_id;sensor_type;location;lat;lon;timestamp;P1;durP1;ratioP1;P2;durP2;ratioP2
2157;SDS011;41972;48.774;9.282;2023-10-19T00:01:54;45.27;;;41.47;;
2157;SDS011;41972;48.774;9.282;2023-10-19T00:04:20;37.97;;;34.57;;
2157;SDS011;41972;48.774;9.282;2023-10-19T00:06:47;40.13;;;36.57;;
2157;SDS011;41972;48.774;9.282;2023-10-19T00:09:14;43.87;;;39.80;;
2157;SDS011;41972;48.774;9.282;2023-10-19T00:11:40;42.60;;;38.77;;
2157;SDS011;41972;48.774;9.282;2023-10-19T00:14:06;42.13;;;38.37;;
2157;SDS011;41972;48.774;9.282;2023-10-19T00:16:44;40.10;;;36.40;;
2157;SDS011;41972;48.774;9.282;2023-10-19T00:19:18;41.17;;;37.17;;
2157;SDS011;41972;48.774;9.282;2023-10-19T00:21:45;44.80;;;40.80;;
2157;SDS011;41972;48.774;9.282;2023-10-19T00:24:19;45.50;;;41.37;;
2157;SDS011;41972;48.774;9.282;2023-10-19T00:26:47;40.40;;;36.60;;
2157;SDS011;41972;48.774;9.282;2023-10-19T00:29:13;43.17;;;38.87;;
2157;SDS011;41972;48.774;9.282;2023-10-19T00:31:55;42.50;;;38.60;;
2157;SDS011;41972;48.774;9.282;2023-10-19T00:34:21;46.33;;;42.33;;
2157;SDS011;41972;48.774;9.282;2023-10-19T00:36:48;43.60;;;39.30;;
2157;SDS011;41972;48.774;9.282;2023-10-19T00:39:16;45.40;;;41.53;;
2157;SDS011;41972;48.774;9.282;2023-10-19T00:41:49;41.53;;;37.27;;
2157;SDS011;41972;48.774;9.282;2023-10-19T00:44:15;48.70;;;44.57;;
2157;SDS011;41972;48.774;9.282;2023-10-19T00:47:01;44.37;;;40.67;;
2157;SDS011;41972;48.774;9.282;2023-10-19T00:49:29;44.50;;;40.80;;
2157;SDS011;41972;48.774;9.282;2023-10-19T00:51:56;50.27;;;46.40;;
2157;SDS011;41972;48.774;9.282;2023-10-19T00:54:32;44.17;;;40.10;;
2157;SDS011;41972;48.774;9.282;2023-10-19T00:57:00;58.93;;;54.63;;
2157;SDS011;41972;48.774;9.282;2023-10-19T00:59:35;47.93;;;43.80;;
2157;SDS011;41972;48.774;9.282;2023-10-19T01:02:28;44.60;;;40.53;;
2157;SDS011;41972;48.774;9.282;2023-10-19T01:04:55;43.60;;;40.00;;
2157;SDS011;41972;48.774;9.282;2023-10-19T01:07:22;45.17;;;41.27;;
2157;SDS011;41972;48.774;9.282;2023-10-19T01:09:48;49.90;;;46.17;;
2157;SDS011;41972;48.774;9.282;2023-10-19T01:12:18;58.30;;;54.23;;
2157;SDS011;41972;48.774;9.282;2023-10-19T01:15:09;41.37;;;38.00;;
2157;SDS011;41972;48.774;9.282;2023-10-19T01:17:38;52.30;;;47.93;;
2157;SDS011;41972;48.774;9.282;2023-10-19T01:20:15;43.00;;;39.40;;
2157;SDS011;41972;48.774;9.282;2023-10-19T01:23:02;38.97;;;35.27;;
2157;SDS011;41972;48.774;9.282;2023-10-19T01:26:17;54.00;;;49.90;;
2157;SDS011;41972;48.774;9.282;2023-10-19T01:28:39;51.37;;;47.50;;
2157;SDS011;41972;48.774;9.282;2023-10-19T01:31:05;41.43;;;37.73;;
2157;SDS011;41972;48.774;9.282;2023-10-19T01:33:31;46.73;;;42.73;;
2157;SDS011;41972;48.774;9.282;2023-10-19T01:35:59;46.10;;;42.07;;
2157;SDS011;41972;48.774;9.282;2023-10-19T01:38:49;41.67;;;38.07;;
2157;SDS011;41972;48.774;9.282;2023-10-19T01:41:25;45.77;;;41.90;;
2157;SDS011;41972;48.774;9.282;2023-10-19T01:43:52;45.83;;;42.10;;
2157;SDS011;41972;48.774;9.282;2023-10-19T01:46:27;45.00;;;41.17;;
2157;SDS011;41972;48.774;9.282;2023-10-19T01:48:59;51.83;;;47.93;;
2157;SDS011;41972;48.774;9.282;2023-10-19T01:51:26;44.47;;;40.77;;
2157;SDS011;41972;48.774;9.282;2023-10-19T01:53:55;40.60;;;36.90;;
2157;SDS011;41972;48.774;9.282;2023-10-19T01:56:22;63.17;;;59.00;;
2157;SDS011;41972;48.774;9.282;2023-10-19T01:58:48;60.93;;;56.90;;
2157;SDS011;41972;48.774;9.282;2023-10-19T02:01:16;42.33;;;38.63;;
2157;SDS011;41972;48.774;9.282;2023-10-19T02:03:52;56.73;;;52.33;;
2157;SDS011;41972;48.774;9.282;2023-10-19T02:06:24;43.00;;;39.23;;
2157;SDS011;41972;48.774;9.282;2023-10-19T02:09:04;43.43;;;39.70;;
2157;SDS011;41972;48.774;9.282;2023-10-19T02:11:42;47.57;;;43.70;;
2157;SDS011;41972;48.774;9.282;2023-10-19T02:14:08;42.97;;;38.60;;
2157;SDS011;41972;48.774;9.282;2023-10-19T02:16:40;39.63;;;35.93;;
2157;SDS011;41972;48.774;9.282;2023-10-19T02:19:08;43.70;;;39.50;;
2157;SDS011;41972;48.774;9.282;2023-10-19T02:21:34;41.93;;;38.23;;
2157;SDS011;41972;48.774;9.282;2023-10-19T02:24:05;39.50;;;35.90;;
2157;SDS011;41972;48.774;9.282;2023-10-19T02:26:35;48.70;;;44.80;;
2157;SDS011;41972;48.774;9.282;2023-10-19T02:29:02;67.03;;;62.40;;
2157;SDS011;41972;48.774;9.282;2023-10-19T02:31:37;53.33;;;48.83;;
2157;SDS011;41972;48.774;9.282;2023-10-19T02:34:07;44.53;;;40.93;;
2157;SDS011;41972;48.774;9.282;2023-10-19T02:36:35;37.00;;;33.53;;
2157;SDS011;41972;48.774;9.282;2023-10-19T02:39:09;42.13;;;38.83;;
2157;SDS011;41972;48.774;9.282;2023-10-19T02:41:36;35.33;;;32.47;;
2157;SDS011;41972;48.774;9.282;2023-10-19T02:44:09;41.07;;;37.10;;
2157;SDS011;41972;48.774;9.282;2023-10-19T02:46:48;32.63;;;29.73;;
2157;SDS011;41972;48.774;9.282;2023-10-19T02:49:17;36.97;;;34.37;;
2157;SDS011;41972;48.774;9.282;2023-10-19T02:51:44;32.20;;;29.40;;
2157;SDS011;41972;48.774;9.282;2023-10-19T02:54:10;26.53;;;24.23;;
2157;SDS011;41972;48.774;9.282;2023-10-19T02:56:49;27.67;;;25.03;;
2157;SDS011;41972;48.774;9.282;2023-10-19T02:59:17;36.13;;;33.30;;
2157;SDS011;41972;48.774;9.282;2023-10-19T03:01:47;33.70;;;31.00;;
2157;SDS011;41972;48.774;9.282;2023-10-19T03:04:13;28.87;;;26.10;;
2157;SDS011;41972;48.774;9.282;2023-10-19T03:06:40;27.10;;;24.70;;
2157;SDS011;41972;48.774;9.282;2023-10-19T03:09:06;29.90;;;27.30;;
2157;SDS011;41972;48.774;9.282;2023-10-19T03:11:41;29.77;;;27.17;;
2157;SDS011;41972;48.774;9.282;2023-10-19T03:14:10;24.83;;;22.40;;
2157;SDS011;41972;48.774;9.282;2023-10-19T03:16:37;28.40;;;26.40;;
2157;SDS011;41972;48.774;9.282;2023-10-19T03:19:06;27.00;;;24.60;;
2157;SDS011;41972;48.774;9.282;2023-10-19T03:21:32;25.50;;;23.10;;
2157;SDS011;41972;48.774;9.282;2023-10-19T03:23:59;22.57;;;20.27;;
2157;SDS011;41972;48.774;9.282;2023-10-19T03:26:37;18.40;;;16.80;;
2157;SDS011;41972;48.774;9.282;2023-10-19T03:29:08;19.93;;;18.07;;
2157;SDS011;41972;48.774;9.282;2023-10-19T03:31:37;17.73;;;16.13;;
2157;SDS011;41972;48.774;9.282;2023-10-19T03:34:08;22.63;;;20.73;;
2157;SDS011;41972;48.774;9.282;2023-10-19T03:36:35;20.93;;;19.23;;
2157;SDS011;41972;48.774;9.282;2023-10-19T03:39:01;25.90;;;24.00;;
2157;SDS011;41972;48.774;9.282;2023-10-19T03:41:36;20.40;;;18.70;;
2157;SDS011;41972;48.774;9.282;2023-10-19T03:44:04;19.27;;;17.70;;
2157;SDS011;41972;48.774;9.282;2023-10-19T03:46:30;23.03;;;21.07;;
2157;SDS011;41972;48.774;9.282;2023-10-19T03:48:56;20.30;;;19.00;;
2157;SDS011;41972;48.774;9.282;2023-10-19T03:51:38;17.83;;;16.13;;
2157;SDS011;41972;48.774;9.282;2023-10-19T03:54:23;31.97;;;29.77;;
2157;SDS011;41972;48.774;9.282;2023-10-19T03:56:50;22.20;;;20.53;;
2157;SDS011;41972;48.774;9.282;2023-10-19T03:59:17;15.30;;;13.93;;
2157;SDS011;41972;48.774;9.282;2023-10-19T04:01:43;19.73;;;18.10;;
2157;SDS011;41972;48.774;9.282;2023-10-19T04:04:09;34.17;;;32.27;;
2157;SDS011;41972;48.774;9.282;2023-10-19T04:06:39;21.30;;;19.80;;
2157;SDS011;41972;48.774;9.282;2023-10-19T04:09:05;24.73;;;23.23;;
2157;SDS011;41972;48.774;9.282;2023-10-19T04:11:31;33.30;;;31.53;;
2157;SDS011;41972;48.774;9.282;2023-10-19T04:14:16;19.83;;;18.43;;
2157;SDS011;41972;48.774;9.282;2023-10-19T04:16:43;21.30;;;19.80;;
2157;SDS011;41972;48.774;9.282;2023-10-19T04:19:09;17.90;;;16.40;;
2157;SDS011;41972;48.774;9.282;2023-10-19T04:21:35;17.67;;;16.40;;
2157;SDS011;41972;48.774;9.282;2023-10-19T04:24:04;15.27;;;14.13;;
2157;SDS011;41972;48.774;9.282;2023-10-19T04:26:32;15.60;;;14.30;;
2157;SDS011;41972;48.774;9.282;2023-10-19T04:29:02;22.37;;;20.80;;
2157;SDS011;41972;48.774;9.282;2023-10-19T04:31:35;16.43;;;15.10;;
2157;SDS011;41972;48.774;9.282;2023-10-19T04:34:14;20.07;;;18.60;;
2157;SDS011;41972;48.774;9.282;2023-10-19T04:36:43;31.87;;;30.07;;
2157;SDS011;41972;48.774;9.282;2023-10-19T04:39:08;23.20;;;20.97;;
2157;SDS011;41972;48.774;9.282;2023-10-19T04:41:39;30.40;;;28.30;;
2157;SDS011;41972;48.774;9.282;2023-10-19T04:44:05;30.47;;;28.37;;
2157;SDS011;41972;48.774;9.282;2023-10-19T04:46:33;32.27;;;30.03;;
2157;SDS011;41972;48.774;9.282;2023-10-19T04:48:59;37.20;;;34.70;;
2157;SDS011;41972;48.774;9.282;2023-10-19T04:51:25;55.70;;;52.50;;
2157;SDS011;41972;48.774;9.282;2023-10-19T04:53:50;31.80;;;29.40;;
2157;SDS011;41972;48.774;9.282;2023-10-19T04:56:16;32.00;;;29.70;;
2157;SDS011;41972;48.774;9.282;2023-10-19T04:58:41;33.13;;;30.97;;
2157;SDS011;41972;48.774;9.282;2023-10-19T05:01:07;21.80;;;20.00;;
2157;SDS011;41972;48.774;9.282;2023-10-19T05:03:32;39.57;;;36.63;;
2157;SDS011;41972;48.774;9.282;2023-10-19T05:05:59;30.00;;;27.50;;
2157;SDS011;41972;48.774;9.282;2023-10-19T05:08:26;26.23;;;24.03;;
2157;SDS011;41972;48.774;9.282;2023-10-19T05:10:52;29.97;;;27.57;;
2157;SDS011;41972;48.774;9.282;2023-10-19T05:13:24;38.27;;;34.40;;
2157;SDS011;41972;48.774;9.282;2023-10-19T05:15:50;35.03;;;32.33;;
2157;SDS011;41972;48.774;9.282;2023-10-19T05:18:18;52.30;;;48.50;;
2157;SDS011;41972;48.774;9.282;2023-10-19T05:20:44;38.67;;;35.13;;
2157;SDS011;41972;48.774;9.282;2023-10-19T05:23:11;45.30;;;41.50;;
2157;SDS011;41972;48.774;9.282;2023-10-19T05:25:38;45.43;;;41.80;;
2157;SDS011;41972;48.774;9.282;2023-10-19T05:28:04;40.80;;;37.17;;
2157;SDS011;41972;48.774;9.282;2023-10-19T05:30:31;41.23;;;37.33;;
2157;SDS011;41972;48.774;9.282;2023-10-19T05:32:57;36.77;;;33.37;;
2157;SDS011;41972;48.774;9.282;2023-10-19T05:35:24;34.43;;;31.10;;
2157;SDS011;41972;48.774;9.282;2023-10-19T05:37:51;34.17;;;30.97;;
2157;SDS011;41972;48.774;9.282;2023-10-19T05:40:18;35.77;;;32.73;;
2157;SDS011;41972;48.774;9.282;2023-10-19T05:42:44;34.80;;;31.40;;
2157;SDS011;41972;48.774;9.282;2023-10-19T05:45:11;30.90;;;28.10;;
2157;SDS011;41972;48.774;9.282;2023-10-19T05:47:41;30.00;;;27.20;;
2157;SDS011;41972;48.774;9.282;2023-10-19T05:50:08;28.73;;;26.47;;
2157;SDS011;41972;48.774;9.282;2023-10-19T05:52:39;34.40;;;32.10;;
2157;SDS011;41972;48.774;9.282;2023-10-19T05:55:11;34.10;;;31.67;;
2157;SDS011;41972;48.774;9.282;2023-10-19T05:57:37;34.97;;;32.33;;
2157;SDS011;41972;48.774;9.282;2023-10-19T06:00:07;32.53;;;30.07;;
2157;SDS011;41972;48.774;9.282;2023-10-19T06:02:37;24.30;;;22.50;;
2157;SDS011;41972;48.774;9.282;2023-10-19T06:05:04;33.27;;;30.80;;
2157;SDS011;41972;48.774;9.282;2023-10-19T06:07:30;29.30;;;27.40;;
2157;SDS011;41972;48.774;9.282;2023-10-19T06:09:56;35.70;;;33.20;;
2157;SDS011;41972;48.774;9.282;2023-10-19T06:12:22;26.10;;;24.20;;
2157;SDS011;41972;48.774;9.282;2023-10-19T06:14:47;24.87;;;23.00;;
2157;SDS011;41972;48.774;9.282;2023-10-19T06:17:13;35.90;;;33.53;;
2157;SDS011;41972;48.774;9.282;2023-10-19T06:19:44;19.10;;;17.47;;
2157;SDS011;41972;48.774;9.282;2023-10-19T06:22:10;32.73;;;31.13;;
2157;SDS011;41972;48.774;9.282;2023-10-19T06:24:37;27.83;;;25.87;;
2157;SDS011;41972;48.774;9.282;2023-10-19T06:27:02;23.67;;;21.83;;
2157;SDS011;41972;48.774;9.282;2023-10-19T06:29:29;33.07;;;31.10;;
2157;SDS011;41972;48.774;9.282;2023-10-19T06:31:54;19.03;;;17.43;;
2157;SDS011;41972;48.774;9.282;2023-10-19T06:34:20;16.47;;;15.10;;
2157;SDS011;41972;48.774;9.282;2023-10-19T06:36:46;17.30;;;15.70;;
2157;SDS011;41972;48.774;9.282;2023-10-19T06:39:11;24.67;;;23.00;;
2157;SDS011;41972;48.774;9.282;2023-10-19T06:41:38;26.03;;;24.17;;
2157;SDS011;41972;48.774;9.282;2023-10-19T06:44:04;26.13;;;23.60;;
2157;SDS011;41972;48.774;9.282;2023-10-19T06:46:30;17.60;;;16.00;;
2157;SDS011;41972;48.774;9.282;2023-10-19T06:48:56;17.60;;;15.83;;
2157;SDS011;41972;48.774;9.282;2023-10-19T06:51:25;21.90;;;20.20;;
2157;SDS011;41972;48.774;9.282;2023-10-19T06:53:51;22.37;;;20.27;;
2157;SDS011;41972;48.774;9.282;2023-10-19T06:56:17;23.17;;;20.90;;
2157;SDS011;41972;48.774;9.282;2023-10-19T06:58:43;23.63;;;21.60;;
2157;SDS011;41972;48.774;9.282;2023-10-19T07:01:09;22.70;;;20.60;;
2157;SDS011;41972;48.774;9.282;2023-10-19T07:03:35;21.27;;;19.47;;
2157;SDS011;41972;48.774;9.282;2023-10-19T07:06:01;22.37;;;20.57;;
2157;SDS011;41972;48.774;9.282;2023-10-19T07:08:28;20.20;;;18.50;;
2157;SDS011;41972;48.774;9.282;2023-10-19T07:10:55;19.47;;;17.97;;
2157;SDS011;41972;48.774;9.282;2023-10-19T07:13:20;24.70;;;22.90;;
2157;SDS011;41972;48.774;9.282;2023-10-19T07:15:47;25.47;;;23.30;;
2157;SDS011;41972;48.774;9.282;2023-10-19T07:18:14;26.63;;;24.33;;
2157;SDS011;41972;48.774;9.282;2023-10-19T07:20:40;34.07;;;31.37;;
2157;SDS011;41972;48.774;9.282;2023-10-19T07:23:07;25.87;;;23.57;;
2157;SDS011;41972;48.774;9.282;2023-10-19T07:25:52;24.20;;;22.30;;
2157;SDS011;41972;48.774;9.282;2023-10-19T07:28:24;22.43;;;20.43;;
2157;SDS011;41972;48.774;9.282;2023-10-19T07:30:51;22.53;;;20.83;;
2157;SDS011;41972;48.774;9.282;2023-10-19T07:33:17;33.73;;;31.23;;
2157;SDS011;41972;48.774;9.282;2023-10-19T07:35:44;25.00;;;22.97;;
2157;SDS011;41972;48.774;9.282;2023-10-19T07:38:12;27.73;;;25.20;;
2157;SDS011;41972;48.774;9.282;2023-10-19T07:40:38;24.90;;;22.90;;
2157;SDS011;41972;48.774;9.282;2023-10-19T07:43:04;30.37;;;27.97;;
2157;SDS011;41972;48.774;9.282;2023-10-19T07:45:30;23.27;;;21.17;;
2157;SDS011;41972;48.774;9.282;2023-10-19T07:47:56;25.13;;;23.00;;
2157;SDS011;41972;48.774;9.282;2023-10-19T07:50:23;20.10;;;18.40;;
2157;SDS011;41972;48.774;9.282;2023-10-19T07:52:52;17.73;;;16.33;;
2157;SDS011;41972;48.774;9.282;2023-10-19T07:55:20;18.80;;;17.27;;
2157;SDS011;41972;48.774;9.282;2023-10-19T07:57:49;21.10;;;19.23;;
2157;SDS011;41972;48.774;9.282;2023-10-19T08:00:16;23.73;;;21.60;;
2157;SDS011;41972;48.774;9.282;2023-10-19T08:02:43;26.73;;;24.20;;
2157;SDS011;41972;48.774;9.282;2023-10-19T08:05:13;25.73;;;23.43;;
2157;SDS011;41972;48.774;9.282;2023-10-19T08:07:39;26.10;;;23.67;;
2157;SDS011;41972;48.774;9.282;2023-10-19T08:10:08;22.73;;;20.73;;
2157;SDS011;41972;48.774;9.282;2023-10-19T08:12:35;17.40;;;15.90;;
2157;SDS011;41972;48.774;9.282;2023-10-19T08:15:02;17.60;;;15.90;;
2157;SDS011;41972;48.774;9.282;2023-10-19T08:17:29;18.53;;;16.93;;
2157;SDS011;41972;48.774;9.282;2023-10-19T08:19:55;16.23;;;14.93;;
2157;SDS011;41972;48.774;9.282;2023-10-19T08:22:22;15.50;;;14.10;;
2157;SDS011;41972;48.774;9.282;2023-10-19T08:24:48;18.97;;;17.77;;
2157;SDS011;41972;48.774;9.282;2023-10-19T08:27:15;16.37;;;15.47;;
2157;SDS011;41972;48.774;9.282;2023-10-19T08:29:42;18.77;;;17.37;;
2157;SDS011;41972;48.774;9.282;2023-10-19T08:32:08;20.03;;;18.40;;
2157;SDS011;41972;48.774;9.282;2023-10-19T08:34:34;17.47;;;16.27;;
2157;SDS011;41972;48.774;9.282;2023-10-19T08:37:01;17.93;;;16.50;;
2157;SDS011;41972;48.774;9.282;2023-10-19T08:39:29;15.77;;;14.70;;
2157;SDS011;41972;48.774;9.282;2023-10-19T08:42:01;15.67;;;14.67;;
2157;SDS011;41972;48.774;9.282;2023-10-19T08:44:30;15.17;;;14.10;;
2157;SDS011;41972;48.774;9.282;2023-10-19T08:46:56;19.83;;;18.63;;
2157;SDS011;41972;48.774;9.282;2023-10-19T08:49:24;24.60;;;23.33;;
2157;SDS011;41972;48.774;9.282;2023-10-19T08:51:53;17.33;;;16.43;;
2157;SDS011;41972;48.774;9.282;2023-10-19T08:54:20;19.53;;;18.23;;
2157;SDS011;41972;48.774;9.282;2023-10-19T08:56:46;16.80;;;15.90;;
2157;SDS011;41972;48.774;9.282;2023-10-19T08:59:12;13.80;;;12.70;;
2157;SDS011;41972;48.774;9.282;2023-10-19T09:01:40;19.30;;;17.90;;
2157;SDS011;41972;48.774;9.282;2023-10-19T09:04:09;10.10;;;9.30;;
2157;SDS011;41972;48.774;9.282;2023-10-19T09:06:35;10.17;;;9.37;;
2157;SDS011;41972;48.774;9.282;2023-10-19T09:09:08;10.60;;;10.10;;
2157;SDS011;41972;48.774;9.282;2023-10-19T09:11:47;12.73;;;12.03;;
2157;SDS011;41972;48.774;9.282;2023-10-19T09:14:15;10.80;;;10.00;;
2157;SDS011;41972;48.774;9.282;2023-10-19T09:17:01;14.30;;;13.40;;
2157;SDS011;41972;48.774;9.282;2023-10-19T09:19:41;9.40;;;8.60;;
2157;SDS011;41972;48.774;9.282;2023-10-19T09:22:09;8.63;;;8.13;;
2157;SDS011;41972;48.774;9.282;2023-10-19T09:24:47;7.30;;;6.80;;
2157;SDS011;41972;48.774;9.282;2023-10-19T09:27:18;10.00;;;8.23;;
2157;SDS011;41972;48.774;9.282;2023-10-19T09:29:44;11.53;;;10.63;;
2157;SDS011;41972;48.774;9.282;2023-10-19T09:32:10;16.23;;;15.33;;
2157;SDS011;41972;48.774;9.282;2023-10-19T09:34:38;11.50;;;10.70;;
2157;SDS011;41972;48.774;9.282;2023-10-19T09:37:08;13.97;;;12.97;;
2157;SDS011;41972;48.774;9.282;2023-10-19T09:39:35;11.93;;;11.03;;
2157;SDS011;41972;48.774;9.282;2023-10-19T09:42:08;12.67;;;11.57;;
2157;SDS011;41972;48.774;9.282;2023-10-19T09:44:42;18.50;;;17.50;;
2157;SDS011;41972;48.774;9.282;2023-10-19T09:47:14;13.23;;;12.40;;
2157;SDS011;41972;48.774;9.282;2023-10-19T09:49:44;15.00;;;14.10;;
2157;SDS011;41972;48.774;9.282;2023-10-19T09:52:10;11.80;;;11.10;;
2157;SDS011;41972;48.774;9.282;2023-10-19T09:54:48;22.40;;;21.17;;
2157;SDS011;41972;48.774;9.282;2023-10-19T09:57:37;15.60;;;14.87;;
2157;SDS011;41972;48.774;9.282;2023-10-19T10:00:12;13.00;;;12.20;;
2157;SDS011;41972;48.774;9.282;2023-10-19T10:02:38;12.00;;;11.30;;
2157;SDS011;41972;48.774;9.282;2023-10-19T10:10:41;7.40;;;6.90;;
2157;SDS011;41972;48.774;9.282;2023-10-19T10:15:52;7.80;;;7.10;;
2157;SDS011;41972;48.774;9.282;2023-10-19T10:18:31;8.40;;;7.67;;
2157;SDS011;41972;48.774;9.282;2023-10-19T10:23:52;7.23;;;6.37;;
2157;SDS011;41972;48.774;9.282;2023-10-19T10:26:22;5.57;;;5.10;;
2157;SDS011;41972;48.774;9.282;2023-10-19T10:29:07;6.23;;;5.53;;
2157;SDS011;41972;48.774;9.282;2023-10-19T10:31:44;6.67;;;6.07;;
2157;SDS011;41972;48.774;9.282;2023-10-19T10:34:11;8.77;;;7.10;;
2157;SDS011;41972;48.774;9.282;2023-10-19T10:36:57;5.57;;;5.17;;
2157;SDS011;41972;48.774;9.282;2023-10-19T10:39:29;10.83;;;10.20;;
2157;SDS011;41972;48.774;9.282;2023-10-19T10:41:59;35.80;;;34.30;;
2157;SDS011;41972;48.774;9.282;2023-10-19T10:44:41;10.57;;;9.73;;
2157;SDS011;41972;48.774;9.282;2023-10-19T10:47:21;6.87;;;6.37;;
2157;SDS011;41972;48.774;9.282;2023-10-19T10:55:10;10.97;;;10.17;;
2157;SDS011;41972;48.774;9.282;2023-10-19T10:57:37;8.07;;;7.47;;
2157;SDS011;41972;48.774;9.282;2023-10-19T11:00:13;10.63;;;9.73;;
2157;SDS011;41972;48.774;9.282;2023-10-19T11:02:40;10.97;;;10.40;;
2157;SDS011;41972;48.774;9.282;2023-10-19T11:05:15;9.60;;;8.70;;
2157;SDS011;41972;48.774;9.282;2023-10-19T11:07:49;15.70;;;14.90;;
2157;SDS011;41972;48.774;9.282;2023-10-19T11:10:46;15.30;;;14.07;;
2157;SDS011;41972;48.774;9.282;2023-10-19T11:13:13;15.57;;;14.27;;
2157;SDS011;41972;48.774;9.282;2023-10-19T11:15:48;13.83;;;12.83;;
2157;SDS011;41972;48.774;9.282;2023-10-19T11:18:36;12.40;;;11.63;;
2157;SDS011;41972;48.774;9.282;2023-10-19T11:21:08;10.53;;;9.67;;
2157;SDS011;41972;48.774;9.282;2023-10-19T11:26:15;11.10;;;10.30;;
2157;SDS011;41972;48.774;9.282;2023-10-19T11:28:42;11.63;;;10.67;;
2157;SDS011;41972;48.774;9.282;2023-10-19T11:31:12;14.27;;;12.67;;
2157;SDS011;41972;48.774;9.282;2023-10-19T11:33:48;15.57;;;14.57;;
2157;SDS011;41972;48.774;9.282;2023-10-19T11:36:15;13.27;;;12.00;;
2157;SDS011;41972;48.774;9.282;2023-10-19T11:38:42;13.07;;;12.07;;
2157;SDS011;41972;48.774;9.282;2023-10-19T11:41:09;13.50;;;12.33;;
2157;SDS011;41972;48.774;9.282;2023-10-19T11:43:40;11.03;;;10.10;;
2157;SDS011;41972;48.774;9.282;2023-10-19T11:46:10;18.37;;;17.33;;
2157;SDS011;41972;48.774;9.282;2023-10-19T11:48:50;10.40;;;9.60;;
2157;SDS011;41972;48.774;9.282;2023-10-19T11:51:15;15.73;;;14.70;;
2157;SDS011;41972;48.774;9.282;2023-10-19T11:53:41;15.00;;;13.80;;
2157;SDS011;41972;48.774;9.282;2023-10-19T11:56:11;14.10;;;13.10;;
2157;SDS011;41972;48.774;9.282;2023-10-19T11:58:38;12.60;;;11.47;;
2157;SDS011;41972;48.774;9.282;2023-10-19T12:01:05;12.43;;;11.53;;
2157;SDS011;41972;48.774;9.282;2023-10-19T12:03:33;10.53;;;9.77;;
2157;SDS011;41972;48.774;9.282;2023-10-19T12:06:03;13.63;;;12.37;;
2157;SDS011;41972;48.774;9.282;2023-10-19T12:08:31;14.00;;;13.20;;
2157;SDS011;41972;48.774;9.282;2023-10-19T12:10:58;21.97;;;20.97;;
2157;SDS011;41972;48.774;9.282;2023-10-19T12:13:26;15.97;;;15.10;;
2157;SDS011;41972;48.774;9.282;2023-10-19T12:15:53;12.63;;;11.70;;
2157;SDS011;41972;48.774;9.282;2023-10-19T12:18:20;13.67;;;12.87;;
2157;SDS011;41972;48.774;9.282;2023-10-19T12:20:46;12.90;;;12.00;;
2157;SDS011;41972;48.774;9.282;2023-10-19T12:23:13;17.83;;;16.73;;
2157;SDS011;41972;48.774;9.282;2023-10-19T12:25:39;7.67;;;7.10;;
2157;SDS011;41972;48.774;9.282;2023-10-19T12:28:07;10.97;;;10.33;;
2157;SDS011;41972;48.774;9.282;2023-10-19T12:30:33;12.83;;;12.00;;
2157;SDS011;41972;48.774;9.282;2023-10-19T12:33:04;15.17;;;14.10;;
2157;SDS011;41972;48.774;9.282;2023-10-19T12:35:36;13.47;;;12.67;;
2157;SDS011;41972;48.774;9.282;2023-10-19T12:38:14;19.90;;;18.93;;
2157;SDS011;41972;48.774;9.282;2023-10-19T12:40:45;11.80;;;10.90;;
2157;SDS011;41972;48.774;9.282;2023-10-19T12:43:12;11.77;;;11.07;;
2157;SDS011;41972;48.774;9.282;2023-10-19T12:45:39;16.97;;;16.07;;
2157;SDS011;41972;48.774;9.282;2023-10-19T12:48:05;10.03;;;9.33;;
2157;SDS011;41972;48.774;9.282;2023-10-19T12:50:31;11.70;;;10.87;;
2157;SDS011;41972;48.774;9.282;2023-10-19T12:52:59;15.63;;;14.70;;
2157;SDS011;41972;48.774;9.282;2023-10-19T12:55:26;9.43;;;8.83;;
2157;SDS011;41972;48.774;9.282;2023-10-19T12:57:54;11.30;;;10.60;;
2157;SDS011;41972;48.774;9.282;2023-10-19T13:00:22;8.90;;;8.37;;
2157;SDS011;41972;48.774;9.282;2023-10-19T13:02:51;14.47;;;13.77;;
2157;SDS011;41972;48.774;9.282;2023-10-19T13:05:31;13.10;;;12.20;;
2157;SDS011;41972;48.774;9.282;2023-10-19T13:07:58;11.37;;;10.67;;
2157;SDS011;41972;48.774;9.282;2023-10-19T13:10:27;9.73;;;9.00;;
2157;SDS011;41972;48.774;9.282;2023-10-19T13:12:57;13.63;;;12.70;;
2157;SDS011;41972;48.774;9.282;2023-10-19T13:15:28;25.10;;;23.53;;
2157;SDS011;41972;48.774;9.282;2023-10-19T13:17:59;26.10;;;24.60;;
2157;SDS011;41972;48.774;9.282;2023-10-19T13:20:25;16.33;;;15.07;;
2157;SDS011;41972;48.774;9.282;2023-10-19T13:22:53;15.27;;;14.07;;
2157;SDS011;41972;48.774;9.282;2023-10-19T13:25:19;27.20;;;25.77;;
2157;SDS011;41972;48.774;9.282;2023-10-19T13:27:53;21.07;;;19.87;;
2157;SDS011;41972;48.774;9.282;2023-10-19T13:30:19;21.13;;;19.80;;
2157;SDS011;41972;48.774;9.282;2023-10-19T13:32:45;24.97;;;23.47;;
2157;SDS011;41972;48.774;9.282;2023-10-19T13:35:11;25.70;;;23.70;;
2157;SDS011;41972;48.774;9.282;2023-10-19T13:37:37;23.40;;;21.90;;
2157;SDS011;41972;48.774;9.282;2023-10-19T13:40:03;14.57;;;13.60;;
2157;SDS011;41972;48.774;9.282;2023-10-19T13:42:31;16.73;;;15.13;;
2157;SDS011;41972;48.774;9.282;2023-10-19T13:44:57;15.87;;;14.70;;
2157;SDS011;41972;48.774;9.282;2023-10-19T13:47:22;18.53;;;17.17;;
2157;SDS011;41972;48.774;9.282;2023-10-19T13:49:48;18.00;;;17.00;;
2157;SDS011;41972;48.774;9.282;2023-10-19T13:52:14;21.23;;;20.03;;
2157;SDS011;41972;48.774;9.282;2023-10-19T13:54:40;23.53;;;22.43;;
2157;SDS011;41972;48.774;9.282;2023-10-19T13:57:06;24.13;;;22.93;;
2157;SDS011;41972;48.774;9.282;2023-10-19T13:59:31;9.13;;;8.63;;
2157;SDS011;41972;48.774;9.282;2023-10-19T14:02:00;23.13;;;22.13;;
2157;SDS011;41972;48.774;9.282;2023-10-19T14:04:25;19.27;;;18.33;;
2157;SDS011;41972;48.774;9.282;2023-10-19T14:06:51;17.60;;;16.50;;
2157;SDS011;41972;48.774;9.282;2023-10-19T14:09:16;17.33;;;16.13;;
2157;SDS011;41972;48.774;9.282;2023-10-19T14:11:43;20.77;;;19.47;;
2157;SDS011;41972;48.774;9.282;2023-10-19T14:14:09;19.30;;;18.03;;
2157;SDS011;41972;48.774;9.282;2023-10-19T14:16:36;18.50;;;17.23;;
2157;SDS011;41972;48.774;9.282;2023-10-19T14:19:04;19.53;;;18.00;;
2157;SDS011;41972;48.774;9.282;2023-10-19T14:21:29;22.73;;;21.33;;
2157;SDS011;41972;48.774;9.282;2023-10-19T14:23:56;18.23;;;17.17;;
2157;SDS011;41972;48.774;9.282;2023-10-19T14:26:21;17.93;;;16.83;;
2157;SDS011;41972;48.774;9.282;2023-10-19T14:28:47;17.93;;;16.73;;
2157;SDS011;41972;48.774;9.282;2023-10-19T14:31:12;18.57;;;17.27;;
2157;SDS011;41972;48.774;9.282;2023-10-19T14:33:38;23.97;;;22.57;;
2157;SDS011;41972;48.774;9.282;2023-10-19T14:36:04;19.43;;;18.03;;
2157;SDS011;41972;48.774;9.282;2023-10-19T14:38:30;22.63;;;21.13;;
2157;SDS011;41972;48.774;9.282;2023-10-19T14:40:56;25.27;;;23.57;;
2157;SDS011;41972;48.774;9.282;2023-10-19T14:43:23;23.87;;;22.00;;
2157;SDS011;41972;48.774;9.282;2023-10-19T14:45:50;21.20;;;19.80;;
2157;SDS011;41972;48.774;9.282;2023-10-19T14:48:16;27.47;;;25.27;;
2157;SDS011;41972;48.774;9.282;2023-10-19T14:50:44;23.70;;;22.03;;
2157;SDS011;41972;48.774;9.282;2023-10-19T14:53:10;22.60;;;20.80;;
2157;SDS011;41972;48.774;9.282;2023-10-19T14:55:36;23.70;;;21.73;;
2157;SDS011;41972;48.774;9.282;2023-10-19T14:58:02;24.20;;;22.30;;
2157;SDS011;41972;48.774;9.282;2023-10-19T15:00:31;22.63;;;20.63;;
2157;SDS011;41972;48.774;9.282;2023-10-19T15:03:02;22.80;;;20.90;;
2157;SDS011;41972;48.774;9.282;2023-10-19T15:05:35;18.97;;;17.43;;
2157;SDS011;41972;48.774;9.282;2023-10-19T15:08:02;17.67;;;16.40;;